Time;durP1;ratioP1;P1;durP2;ratioP2;P2;SDS_P1;SDS_P2;PMS_P1;PMS_P2;Temp;Humidity;BMP_temperature;BMP_pressure;BME280_temperature;BME280_humidity;BME280_pressure;Samples;Min_cycle;Max_cycle;Signal;HPM_P1;HPM_P2
2021/10/28 00:12:12;;;;;;;;;;;20.40;48.70;;;;;;483345;245;1730;-46
2021/10/28 00:12:37;;;;;;;;;;;20.40;48.80;;;;;;483347;245;1490;-46
2021/10/28 00:14:34;;;;;;;;;;;20.40;48.90;;;;;;483206;245;1889;-46
2021/10/28 00:16:36;;;;;;;;;;;20.40;48.70;;;;;;483702;244;1513;-46
2021/10/28 00:18:41;;;;;;;;;;;20.40;48.70;;;;;;483858;244;2162;-47
2021/10/28 00:20:41;;;;;;;;;;;20.40;48.70;;;;;;483587;244;2413;-47
2021/10/28 00:22:42;;;;;;;;;;;20.40;48.70;;;;;;483799;244;1288;-46
2021/10/28 00:24:45;;;;;;;;;;;20.40;48.80;;;;;;483878;244;1048;-46
2021/10/28 00:26:45;;;;;;;;;;;20.30;48.80;;;;;;483450;242;2392;-46
2021/10/28 00:28:47;;;;;;;;;;;20.40;48.80;;;;;;483846;244;1075;-46
2021/10/28 00:30:48;;;;;;;;;;;20.40;48.80;;;;;;483850;244;2184;-46
2021/10/28 00:32:49;;;;;;;;;;;20.30;48.80;;;;;;483657;244;1190;-46
2021/10/28 00:34:50;;;;;;;;;;;20.40;48.90;;;;;;483843;244;1062;-47
2021/10/28 00:36:52;;;;;;;;;;;20.40;48.80;;;;;;483388;244;1185;-46
2021/10/28 00:38:53;;;;;;;;;;;20.40;48.80;;;;;;483811;244;1113;-46
2021/10/28 00:40:55;;;;;;;;;;;20.40;48.80;;;;;;483304;244;1095;-46
2021/10/28 00:42:56;;;;;;;;;;;20.30;48.80;;;;;;483754;244;1335;-46
2021/10/28 00:44:57;;;;;;;;;;;20.40;48.80;;;;;;483849;244;1033;-46
2021/10/28 00:46:59;;;;;;;;;;;20.40;48.70;;;;;;483808;244;1135;-46
2021/10/28 00:49:00;;;;;;;;;;;20.30;48.80;;;;;;483811;243;1039;-46
2021/10/28 00:51:01;;;;;;;;;;;20.30;48.80;;;;;;483650;244;2156;-46
2021/10/28 00:53:03;;;;;;;;;;;20.40;48.80;;;;;;483878;244;1248;-46
2021/10/28 00:55:04;;;;;;;;;;;20.40;48.80;;;;;;483876;244;2124;-46
2021/10/28 00:57:06;;;;;;;;;;;20.40;48.70;;;;;;483400;241;1572;-46
2021/10/28 00:59:07;;;;;;;;;;;20.40;48.80;;;;;;483845;244;1032;-46
2021/10/28 01:01:08;;;;;;;;;;;20.40;48.80;;;;;;483825;244;970;-46
2021/10/28 01:03:10;;;;;;;;;;;20.40;48.80;;;;;;483735;244;1240;-47
2021/10/28 01:05:11;;;;;;;;;;;20.40;48.70;;;;;;483652;244;1004;-46
2021/10/28 01:07:12;;;;;;;;;;;20.40;48.70;;;;;;483373;244;2115;-46
2021/10/28 01:09:13;;;;;;;;;;;20.30;48.70;;;;;;483898;244;1048;-47
2021/10/28 01:11:15;;;;;;;;;;;20.40;48.70;;;;;;483579;244;2189;-46
2021/10/28 01:13:16;;;;;;;;;;;20.40;48.70;;;;;;483847;244;1064;-46
2021/10/28 01:15:18;;;;;;;;;;;20.30;48.80;;;;;;483346;244;1074;-46
2021/10/28 01:17:19;;;;;;;;;;;20.40;48.80;;;;;;483355;244;1574;-47
2021/10/28 01:19:20;;;;;;;;;;;20.40;48.70;;;;;;483662;244;978;-47
2021/10/28 01:21:21;;;;;;;;;;;20.30;48.60;;;;;;483574;244;1188;-46
2021/10/28 01:23:23;;;;;;;;;;;20.40;48.70;;;;;;483829;244;1286;-46
2021/10/28 01:25:24;;;;;;;;;;;20.30;48.70;;;;;;483398;245;2430;-47
2021/10/28 01:27:25;;;;;;;;;;;20.30;48.80;;;;;;483510;244;1238;-46
2021/10/28 01:29:27;;;;;;;;;;;20.30;48.80;;;;;;483857;244;1084;-46
2021/10/28 01:31:28;;;;;;;;;;;20.40;48.80;;;;;;483525;244;2192;-46
2021/10/28 01:33:30;;;;;;;;;;;20.40;48.70;;;;;;483861;244;1121;-46
2021/10/28 01:35:31;;;;;;;;;;;20.40;48.80;;;;;;483840;244;1067;-46
2021/10/28 01:37:32;;;;;;;;;;;20.40;48.80;;;;;;483323;244;1536;-46
2021/10/28 01:39:34;;;;;;;;;;;20.40;48.70;;;;;;483885;244;1013;-47
2021/10/28 01:41:35;;;;;;;;;;;20.40;48.70;;;;;;483335;244;1259;-46
2021/10/28 01:43:36;;;;;;;;;;;20.30;48.60;;;;;;483419;244;1305;-46
2021/10/28 01:45:38;;;;;;;;;;;20.40;48.70;;;;;;483819;244;1411;-46
2021/10/28 01:47:40;;;;;;;;;;;20.30;48.70;;;;;;483401;244;1223;-47
2021/10/28 01:49:41;;;;;;;;;;;20.40;48.80;;;;;;483848;244;2236;-46
2021/10/28 01:51:43;;;;;;;;;;;20.30;48.80;;;;;;483552;244;2204;-46
2021/10/28 01:53:43;;;;;;;;;;;20.30;48.70;;;;;;483415;244;1246;-46
2021/10/28 01:55:45;;;;;;;;;;;20.40;48.70;;;;;;483383;244;1374;-46
2021/10/28 01:57:46;;;;;;;;;;;20.40;48.70;;;;;;483350;244;2017;-46
2021/10/28 01:59:48;;;;;;;;;;;20.30;48.70;;;;;;483844;244;1210;-46
2021/10/28 02:01:49;;;;;;;;;;;20.30;48.80;;;;;;483586;244;1309;-46
2021/10/28 02:03:50;;;;;;;;;;;20.30;48.70;;;;;;483857;244;1245;-46
2021/10/28 02:05:52;;;;;;;;;;;20.30;48.70;;;;;;483860;244;1350;-46
2021/10/28 02:07:53;;;;;;;;;;;20.40;48.70;;;;;;483444;244;1182;-46
2021/10/28 02:09:54;;;;;;;;;;;20.30;48.70;;;;;;483566;244;1033;-46
2021/10/28 02:11:55;;;;;;;;;;;20.30;48.70;;;;;;483433;244;2137;-46
2021/10/28 02:13:58;;;;;;;;;;;20.30;48.80;;;;;;483763;244;1145;-46
2021/10/28 02:16:00;;;;;;;;;;;20.30;48.70;;;;;;483794;244;1175;-47
2021/10/28 02:18:01;;;;;;;;;;;20.40;48.70;;;;;;483665;244;1166;-46
2021/10/28 02:20:02;;;;;;;;;;;20.30;48.80;;;;;;483876;244;1046;-46
2021/10/28 02:22:04;;;;;;;;;;;20.30;48.80;;;;;;483449;244;1356;-46
2021/10/28 02:24:05;;;;;;;;;;;20.30;48.80;;;;;;483896;244;1230;-47
2021/10/28 02:26:06;;;;;;;;;;;20.30;48.80;;;;;;483758;244;1430;-47
2021/10/28 02:28:07;;;;;;;;;;;20.30;48.70;;;;;;483397;244;1153;-47
2021/10/28 02:30:09;;;;;;;;;;;20.30;48.70;;;;;;483865;244;1105;-46
2021/10/28 02:32:10;;;;;;;;;;;20.30;48.70;;;;;;483339;244;2196;-47
2021/10/28 02:34:11;;;;;;;;;;;20.40;48.70;;;;;;483497;244;1261;-46
2021/10/28 02:36:13;;;;;;;;;;;20.30;48.80;;;;;;483323;244;1350;-46
2021/10/28 02:38:14;;;;;;;;;;;20.30;48.80;;;;;;483363;244;1196;-46
2021/10/28 02:40:15;;;;;;;;;;;20.30;48.70;;;;;;483871;244;1026;-46
2021/10/28 02:42:17;;;;;;;;;;;20.30;48.80;;;;;;483741;244;1234;-46
2021/10/28 02:44:18;;;;;;;;;;;20.30;48.70;;;;;;483899;244;1062;-46
2021/10/28 02:46:19;;;;;;;;;;;20.30;48.80;;;;;;483853;239;1435;-46
2021/10/28 02:48:21;;;;;;;;;;;20.30;48.80;;;;;;483715;244;1218;-46
2021/10/28 02:50:23;;;;;;;;;;;20.30;48.80;;;;;;483622;244;1199;-47
2021/10/28 02:52:24;;;;;;;;;;;20.40;48.80;;;;;;483584;245;2278;-46
2021/10/28 02:54:25;;;;;;;;;;;20.40;48.70;;;;;;483814;244;1367;-46
2021/10/28 02:56:26;;;;;;;;;;;20.30;48.70;;;;;;483511;244;1322;-46
2021/10/28 02:58:27;;;;;;;;;;;20.30;48.70;;;;;;483375;244;1203;-46
2021/10/28 03:00:29;;;;;;;;;;;20.30;48.70;;;;;;483444;244;1411;-46
2021/10/28 03:02:30;;;;;;;;;;;20.30;48.70;;;;;;483432;244;1160;-46
2021/10/28 03:04:31;;;;;;;;;;;20.30;48.80;;;;;;483434;244;1094;-47
2021/10/28 03:06:37;;;;;;;;;;;20.30;48.70;;;;;;483317;244;1341;-46
2021/10/28 03:08:34;;;;;;;;;;;20.30;48.70;;;;;;483236;245;2224;-46
2021/10/28 03:10:36;;;;;;;;;;;20.30;48.70;;;;;;483577;244;1166;-46
2021/10/28 03:12:39;;;;;;;;;;;20.30;48.70;;;;;;483767;244;2188;-47
2021/10/28 03:14:41;;;;;;;;;;;20.30;48.80;;;;;;483726;245;2068;-46
2021/10/28 03:16:50;;;;;;;;;;;20.30;48.80;;;;;;483474;245;1529;-46
2021/10/28 03:25:44;;;;;;;;;;;20.30;48.70;;;;;;483374;245;1152;-46
2021/10/28 03:27:45;;;;;;;;;;;20.30;48.80;;;;;;483446;244;1174;-47
2021/10/28 03:29:47;;;;;;;;;;;20.30;48.80;;;;;;483373;244;1083;-46
2021/10/28 03:31:48;;;;;;;;;;;20.30;48.70;;;;;;483748;244;2168;-46
2021/10/28 03:33:50;;;;;;;;;;;20.30;48.70;;;;;;483828;244;1026;-46
2021/10/28 03:35:51;;;;;;;;;;;20.40;48.70;;;;;;483790;242;1468;-46
2021/10/28 03:37:54;;;;;;;;;;;20.40;48.70;;;;;;483318;244;2414;-46
2021/10/28 03:42:49;;;;;;;;;;;20.40;48.70;;;;;;481023;247;1392;-46
2021/10/28 03:45:21;;;;;;;;;;;20.40;48.60;;;;;;482673;245;2101;-46
2021/10/28 03:47:29;;;;;;;;;;;20.30;48.60;;;;;;482433;245;2298;-46
2021/10/28 03:56:47;;;;;;;;;;;20.40;48.70;;;;;;483247;244;1223;-47
2021/10/28 03:59:02;;;;;;;;;;;20.30;48.70;;;;;;482931;245;1846;-47
2021/10/28 04:04:01;;;;;;;;;;;20.30;48.70;;;;;;474439;245;1159;-46
2021/10/28 04:06:15;;;;;;;;;;;20.30;48.80;;;;;;482963;245;2004;-46
2021/10/28 04:18:10;;;;;;;;;;;20.30;48.70;;;;;;483324;245;1182;-46
2021/10/28 04:20:19;;;;;;;;;;;20.30;48.80;;;;;;483234;245;2191;-46
2021/10/28 04:29:30;;;;;;;;;;;20.40;48.70;;;;;;483790;246;1571;-46
2021/10/28 04:31:32;;;;;;;;;;;20.30;48.80;;;;;;483457;244;1259;-46
2021/10/28 04:33:33;;;;;;;;;;;20.30;48.80;;;;;;483313;244;2200;-47
2021/10/28 04:35:34;;;;;;;;;;;20.30;48.70;;;;;;483672;244;1256;-46
2021/10/28 04:37:36;;;;;;;;;;;20.30;48.80;;;;;;483121;244;1614;-46
2021/10/28 04:39:37;;;;;;;;;;;20.30;48.80;;;;;;483776;244;1104;-46
2021/10/28 04:41:38;;;;;;;;;;;20.30;48.80;;;;;;483162;244;1313;-46
2021/10/28 04:43:39;;;;;;;;;;;20.40;48.70;;;;;;483742;244;1019;-47
2021/10/28 04:45:41;;;;;;;;;;;20.40;48.70;;;;;;483324;244;1245;-46
2021/10/28 04:47:42;;;;;;;;;;;20.40;48.70;;;;;;483209;244;1150;-46
2021/10/28 04:49:43;;;;;;;;;;;20.30;48.70;;;;;;483712;244;1238;-47
2021/10/28 04:51:45;;;;;;;;;;;20.40;48.70;;;;;;483581;244;1188;-46
2021/10/28 04:53:46;;;;;;;;;;;20.30;48.70;;;;;;483312;244;2192;-46
2021/10/28 04:55:47;;;;;;;;;;;20.40;48.70;;;;;;483199;244;1110;-47
2021/10/28 04:57:49;;;;;;;;;;;20.40;48.70;;;;;;483169;244;1054;-46
2021/10/28 04:59:50;;;;;;;;;;;20.30;48.70;;;;;;483189;244;1064;-47
2021/10/28 05:01:52;;;;;;;;;;;20.30;48.70;;;;;;483166;244;1060;-46
2021/10/28 05:03:53;;;;;;;;;;;20.40;48.70;;;;;;483342;244;2263;-47
2021/10/28 05:05:54;;;;;;;;;;;20.30;48.70;;;;;;483365;244;1114;-47
2021/10/28 05:07:56;;;;;;;;;;;20.30;48.70;;;;;;483515;241;1162;-46
2021/10/28 05:09:57;;;;;;;;;;;20.30;48.70;;;;;;483640;244;1063;-47
2021/10/28 05:11:58;;;;;;;;;;;20.40;48.70;;;;;;483144;244;1160;-46
2021/10/28 05:14:00;;;;;;;;;;;20.30;48.70;;;;;;483235;244;2196;-46
2021/10/28 05:16:02;;;;;;;;;;;20.30;48.70;;;;;;483123;244;1227;-46
2021/10/28 05:18:02;;;;;;;;;;;20.30;48.70;;;;;;483161;245;2333;-46
2021/10/28 05:20:04;;;;;;;;;;;20.40;48.70;;;;;;483197;244;1250;-46
2021/10/28 05:22:05;;;;;;;;;;;20.30;48.70;;;;;;483544;244;1162;-47
2021/10/28 05:24:06;;;;;;;;;;;20.30;48.70;;;;;;483195;244;1180;-46
2021/10/28 05:26:08;;;;;;;;;;;20.30;48.70;;;;;;482976;244;1139;-46
2021/10/28 05:28:09;;;;;;;;;;;20.30;48.80;;;;;;482974;244;1412;-46
2021/10/28 05:30:10;;;;;;;;;;;20.30;48.80;;;;;;483088;244;1193;-46
2021/10/28 05:32:12;;;;;;;;;;;20.30;48.70;;;;;;483159;244;1314;-46
2021/10/28 05:34:13;;;;;;;;;;;20.30;48.70;;;;;;483114;244;2208;-46
2021/10/28 05:36:14;;;;;;;;;;;20.30;48.70;;;;;;482951;244;1279;-46
2021/10/28 05:38:16;;;;;;;;;;;20.30;48.70;;;;;;482970;244;1299;-47
2021/10/28 05:40:17;;;;;;;;;;;20.30;48.70;;;;;;483390;244;1091;-47
2021/10/28 05:42:19;;;;;;;;;;;20.40;48.80;;;;;;483119;244;1260;-46
2021/10/28 05:44:20;;;;;;;;;;;20.30;48.80;;;;;;483067;244;1053;-46
2021/10/28 05:46:21;;;;;;;;;;;20.30;48.70;;;;;;482966;244;1050;-46
2021/10/28 05:48:23;;;;;;;;;;;20.30;48.70;;;;;;482932;244;1249;-46
2021/10/28 05:50:24;;;;;;;;;;;20.30;48.80;;;;;;483128;244;1095;-46
2021/10/28 05:52:25;;;;;;;;;;;20.30;48.80;;;;;;483024;244;2143;-46
2021/10/28 05:54:26;;;;;;;;;;;20.30;48.70;;;;;;483246;244;1201;-46
2021/10/28 05:56:28;;;;;;;;;;;20.30;48.70;;;;;;483032;244;1427;-46
2021/10/28 05:58:29;;;;;;;;;;;20.30;48.70;;;;;;483219;244;1197;-46
2021/10/28 06:00:31;;;;;;;;;;;20.30;48.70;;;;;;482963;243;1499;-47
2021/10/28 06:02:32;;;;;;;;;;;20.30;48.70;;;;;;483250;244;1178;-47
2021/10/28 06:04:33;;;;;;;;;;;20.40;48.70;;;;;;483107;244;1061;-46
2021/10/28 06:06:35;;;;;;;;;;;20.30;48.70;;;;;;482929;244;1325;-47
2021/10/28 06:08:36;;;;;;;;;;;20.30;48.70;;;;;;482860;244;1192;-46
2021/10/28 06:10:37;;;;;;;;;;;20.30;48.70;;;;;;482886;244;1157;-46
2021/10/28 06:12:40;;;;;;;;;;;20.30;48.70;;;;;;482937;244;2220;-46
2021/10/28 06:14:40;;;;;;;;;;;20.30;48.70;;;;;;482923;245;1536;-47
2021/10/28 06:16:42;;;;;;;;;;;20.30;48.60;;;;;;482885;244;1208;-46
2021/10/28 06:18:43;;;;;;;;;;;20.30;48.60;;;;;;482979;245;2148;-46
2021/10/28 06:20:44;;;;;;;;;;;20.30;48.70;;;;;;483012;244;1633;-47
2021/10/28 06:22:45;;;;;;;;;;;20.30;48.80;;;;;;482787;244;1220;-46
2021/10/28 06:24:46;;;;;;;;;;;20.30;48.80;;;;;;482971;244;1221;-46
2021/10/28 06:26:48;;;;;;;;;;;20.30;48.80;;;;;;482866;244;1333;-46
2021/10/28 06:28:49;;;;;;;;;;;20.30;48.80;;;;;;482959;244;1108;-46
2021/10/28 06:30:50;;;;;;;;;;;20.40;48.70;;;;;;482874;244;1131;-46
2021/10/28 06:32:53;;;;;;;;;;;20.30;48.70;;;;;;482724;244;2117;-46
2021/10/28 06:34:53;;;;;;;;;;;20.30;48.80;;;;;;482720;245;2169;-46
2021/10/28 06:37:00;;;;;;;;;;;20.30;48.80;;;;;;482702;244;1164;-46
2021/10/28 06:38:56;;;;;;;;;;;20.30;48.80;;;;;;482394;245;2529;-46
2021/10/28 06:40:58;;;;;;;;;;;20.30;48.70;;;;;;482685;244;1215;-47
2021/10/28 06:42:59;;;;;;;;;;;20.30;48.70;;;;;;482921;244;1211;-46
2021/10/28 06:45:00;;;;;;;;;;;20.30;48.70;;;;;;482739;244;1099;-47
2021/10/28 06:47:02;;;;;;;;;;;20.30;48.80;;;;;;482590;242;1341;-47
2021/10/28 06:49:05;;;;;;;;;;;20.30;48.80;;;;;;482712;244;1369;-46
2021/10/28 06:51:04;;;;;;;;;;;20.30;48.70;;;;;;482566;244;2243;-46
2021/10/28 06:53:10;;;;;;;;;;;20.30;48.80;;;;;;482495;244;2192;-46
2021/10/28 06:55:10;;;;;;;;;;;20.30;48.70;;;;;;482480;245;2328;-46
2021/10/28 07:04:07;;;;;;;;;;;20.30;48.70;;;;;;482724;244;1064;-46
2021/10/28 07:06:11;;;;;;;;;;;20.30;48.80;;;;;;482596;244;1140;-46
2021/10/28 07:08:11;;;;;;;;;;;20.30;48.80;;;;;;482975;244;2272;-45
2021/10/28 07:10:14;;;;;;;;;;;20.30;48.80;;;;;;482720;244;1133;-46
2021/10/28 07:12:20;;;;;;;;;;;20.30;48.80;;;;;;482543;243;2289;-47
2021/10/28 07:14:16;;;;;;;;;;;20.30;48.70;;;;;;482468;245;2188;-46
2021/10/28 07:16:30;;;;;;;;;;;20.30;48.70;;;;;;482795;244;1198;-46
2021/10/28 07:18:39;;;;;;;;;;;20.30;48.70;;;;;;482542;245;2055;-47
2021/10/28 07:20:53;;;;;;;;;;;20.40;48.70;;;;;;481976;245;1750;-46
2021/10/28 07:23:01;;;;;;;;;;;20.40;48.70;;;;;;482069;245;2142;-46
2021/10/28 07:25:17;;;;;;;;;;;20.40;48.60;;;;;;482389;245;1778;-46
2021/10/28 07:27:31;;;;;;;;;;;20.50;48.60;;;;;;482214;245;1719;-46
2021/10/28 07:34:54;;;;;;;;;;;20.50;48.30;;;;;;482721;244;2168;-46
2021/10/28 07:56:33;;;;;;;;;;;20.60;48.20;;;;;;482560;245;1249;-46
2021/10/28 08:14:53;;;;;;;;;;;20.70;48.70;;;;;;482462;244;2109;-46
2021/10/28 08:17:09;;;;;;;;;;;20.70;48.70;;;;;;482162;245;2075;-45
2021/10/28 08:19:17;;;;;;;;;;;20.70;48.90;;;;;;482541;245;2087;-46
2021/10/28 08:21:16;;;;;;;;;;;20.60;48.90;;;;;;482078;245;2261;-46
2021/10/28 08:23:26;;;;;;;;;;;20.60;48.90;;;;;;482791;242;1321;-46
2021/10/28 08:29:56;;;;;;;;;;;20.60;49.10;;;;;;482460;245;1235;-46
2021/10/28 08:31:56;;;;;;;;;;;20.70;49.00;;;;;;482248;245;1226;-46
2021/10/28 08:33:57;;;;;;;;;;;20.70;49.00;;;;;;482422;244;2121;-46
2021/10/28 08:36:07;;;;;;;;;;;20.60;49.10;;;;;;482444;244;1245;-45
2021/10/28 08:38:01;;;;;;;;;;;20.70;49.10;;;;;;482512;242;1458;-46
2021/10/28 08:40:02;;;;;;;;;;;20.70;49.10;;;;;;482596;244;1727;-46
2021/10/28 08:42:04;;;;;;;;;;;20.70;49.00;;;;;;482689;244;1249;-48
2021/10/28 08:44:05;;;;;;;;;;;20.70;49.10;;;;;;482541;244;1349;-48
2021/10/28 08:46:07;;;;;;;;;;;20.70;49.20;;;;;;482481;244;1266;-46
2021/10/28 08:48:08;;;;;;;;;;;20.70;49.10;;;;;;482472;245;2130;-46
2021/10/28 08:50:12;;;;;;;;;;;20.80;49.20;;;;;;482610;244;2414;-46
2021/10/28 08:54:55;;;;;;;;;;;20.70;49.20;;;;;;482403;246;2213;-46
2021/10/28 08:57:12;;;;;;;;;;;20.80;49.20;;;;;;482091;245;1773;-46
2021/10/28 08:59:26;;;;;;;;;;;20.80;49.20;;;;;;481855;245;2325;-46
2021/10/28 09:24:55;;;;;;;;;;;20.80;49.20;;;;;;482521;245;1165;-45
2021/10/28 09:26:58;;;;;;;;;;;20.80;49.20;;;;;;482530;244;1186;-46
2021/10/28 09:29:00;;;;;;;;;;;20.80;49.30;;;;;;483294;245;2090;-45
2021/10/28 09:31:00;;;;;;;;;;;20.70;49.30;;;;;;482645;245;2049;-46
2021/10/28 09:33:01;;;;;;;;;;;20.80;49.40;;;;;;482671;244;2197;-46
2021/10/28 09:35:16;;;;;;;;;;;20.80;49.30;;;;;;482636;244;2133;-46
2021/10/28 09:44:36;;;;;;;;;;;20.80;49.30;;;;;;469215;252;1297;-45
2021/10/28 09:46:40;;;;;;;;;;;20.80;49.40;;;;;;485579;243;2180;-45
2021/10/28 09:51:00;;;;;;;;;;;20.80;49.40;;;;;;486917;243;1339;-46
2021/10/28 09:53:05;;;;;;;;;;;20.80;49.40;;;;;;487101;244;2161;-46
2021/10/28 09:57:35;;;;;;;;;;;20.80;49.30;;;;;;486797;243;2194;-46
2021/10/28 09:59:23;;;;;;;;;;;20.80;49.30;;;;;;473424;251;1782;-46
2021/10/28 10:01:24;;;;;;;;;;;20.80;49.30;;;;;;473577;251;1237;-46
2021/10/28 10:03:26;;;;;;;;;;;20.80;49.30;;;;;;473486;251;1234;-46
2021/10/28 10:05:29;;;;;;;;;;;20.80;49.40;;;;;;473603;251;1113;-46
2021/10/28 10:07:28;;;;;;;;;;;20.80;49.30;;;;;;473275;251;1700;-46
2021/10/28 10:09:30;;;;;;;;;;;20.90;49.30;;;;;;473512;251;1302;-46
2021/10/28 10:11:31;;;;;;;;;;;20.80;49.30;;;;;;473549;251;1356;-46
2021/10/28 10:13:33;;;;;;;;;;;20.80;49.40;;;;;;473681;251;1071;-46
2021/10/28 10:15:34;;;;;;;;;;;20.80;49.50;;;;;;473535;251;2196;-46
2021/10/28 10:17:35;;;;;;;;;;;20.80;49.50;;;;;;473217;251;1276;-48
2021/10/28 10:19:37;;;;;;;;;;;20.80;49.40;;;;;;473514;251;1156;-48
2021/10/28 10:21:39;;;;;;;;;;;20.80;49.40;;;;;;473688;251;1630;-48
2021/10/28 10:23:54;;;;;;;;;;;20.90;49.50;;;;;;473479;251;1598;-48
2021/10/28 10:25:55;;;;;;;;;;;20.80;49.40;;;;;;472900;251;2216;-48
2021/10/28 10:28:28;;;;;;;;;;;20.90;49.40;;;;;;473140;251;2328;-48
2021/10/28 10:30:17;;;;;;;;;;;20.80;49.40;;;;;;472151;251;1877;-48
2021/10/28 11:20:06;;;;;;;;;;;20.90;48.70;;;;;;463586;251;1286;-48
2021/10/28 11:22:10;;;;;;;;;;;20.80;48.60;;;;;;472402;248;1794;-48
2021/10/28 11:26:39;;;;;;;;;;;20.90;48.60;;;;;;474069;250;1289;-46
2021/10/28 11:29:00;;;;;;;;;;;20.90;48.60;;;;;;473651;251;2132;-46
2021/10/28 11:31:14;;;;;;;;;;;20.90;48.70;;;;;;473306;251;2236;-46
2021/10/28 12:25:49;;;;;;;;;;;20.90;48.40;;;;;;463325;251;1291;-48
2021/10/28 12:44:20;;;;;;;;;;;20.90;48.40;;;;;;473978;250;1200;-48
2021/10/28 12:46:25;;;;;;;;;;;20.90;48.50;;;;;;473835;251;2152;-48
2021/10/28 12:48:54;;;;;;;;;;;20.90;48.40;;;;;;473900;247;1396;-48
2021/10/28 12:50:55;;;;;;;;;;;20.90;48.40;;;;;;472994;251;2383;-48
2021/10/28 12:53:07;;;;;;;;;;;20.90;48.50;;;;;;474269;251;1985;-48
2021/10/28 12:55:10;;;;;;;;;;;20.90;48.50;;;;;;473971;251;2192;-48
2021/10/28 13:01:57;;;;;;;;;;;20.80;48.40;;;;;;473546;251;2194;-48
2021/10/28 13:04:00;;;;;;;;;;;20.90;48.60;;;;;;473604;250;1271;-48
2021/10/28 13:48:28;;;;;;;;;;;20.90;48.70;;;;;;483234;245;1040;-47
2021/10/28 13:50:43;;;;;;;;;;;20.90;48.60;;;;;;482705;247;1876;-48
2021/10/28 13:55:18;;;;;;;;;;;20.90;48.70;;;;;;481559;247;2179;-48
2021/10/28 13:57:40;;;;;;;;;;;20.90;48.60;;;;;;482436;245;2033;-48
2021/10/28 13:59:57;;;;;;;;;;;20.90;48.60;;;;;;482694;244;2165;-48
2021/10/28 14:19:26;;;;;;;;;;;21.00;48.70;;;;;;460999;254;1255;-48
2021/10/28 14:21:26;;;;;;;;;;;20.90;48.60;;;;;;472744;251;2398;-48
2021/10/28 14:23:31;;;;;;;;;;;21.00;48.60;;;;;;472348;252;2139;-48
2021/10/28 14:29:07;;;;;;;;;;;21.00;48.70;;;;;;472746;251;1224;-48
2021/10/28 14:30:52;;;;;;;;;;;20.90;48.80;;;;;;471470;252;1236;-48
2021/10/28 14:38:03;;;;;;;;;;;20.80;48.90;;;;;;472899;250;1542;-48
2021/10/28 14:58:56;;;;;;;;;;;20.70;49.10;;;;;;472823;251;1177;-48
2021/10/28 15:29:06;;;;;;;;;;;20.70;49.20;;;;;;473188;251;1068;-48
2021/10/28 15:35:56;;;;;;;;;;;20.70;49.30;;;;;;472885;251;2182;-48
2021/10/28 15:38:13;;;;;;;;;;;20.70;49.30;;;;;;472809;251;1626;-47
2021/10/28 15:40:11;;;;;;;;;;;20.60;49.20;;;;;;472542;252;1377;-48
2021/10/28 15:42:30;;;;;;;;;;;20.70;49.20;;;;;;472649;252;2282;-48
2021/10/28 15:51:58;;;;;;;;;;;20.60;49.20;;;;;;461924;252;1272;-48
2021/10/28 15:54:04;;;;;;;;;;;20.60;49.30;;;;;;471835;252;2152;-47
2021/10/28 15:59:17;;;;;;;;;;;20.60;49.30;;;;;;466977;252;1539;-48
2021/10/28 16:22:11;;;;;;;;;;;20.60;49.20;;;;;;473130;252;1205;-48
2021/10/28 16:24:12;;;;;;;;;;;20.60;49.30;;;;;;473358;251;1087;-48
2021/10/28 16:26:14;;;;;;;;;;;20.60;49.30;;;;;;473574;251;1161;-48
2021/10/28 16:28:16;;;;;;;;;;;20.60;49.30;;;;;;473258;251;1241;-48
2021/10/28 16:30:17;;;;;;;;;;;20.60;49.30;;;;;;473305;251;1302;-47
2021/10/28 16:32:18;;;;;;;;;;;20.60;49.40;;;;;;473298;251;1269;-48
2021/10/28 16:34:19;;;;;;;;;;;20.60;49.40;;;;;;473165;251;1062;-48
2021/10/28 16:36:24;;;;;;;;;;;20.60;49.40;;;;;;473164;251;2205;-48
2021/10/28 16:38:24;;;;;;;;;;;20.60;49.30;;;;;;473042;252;1487;-48
2021/10/28 16:40:23;;;;;;;;;;;20.60;49.40;;;;;;473441;251;1853;-48
2021/10/28 16:42:25;;;;;;;;;;;20.50;49.40;;;;;;473383;251;1252;-47
2021/10/28 16:44:26;;;;;;;;;;;20.60;49.40;;;;;;473283;251;1108;-48
2021/10/28 16:46:27;;;;;;;;;;;20.50;49.30;;;;;;473304;251;1286;-48
2021/10/28 16:48:29;;;;;;;;;;;20.60;49.40;;;;;;473274;251;1568;-48
2021/10/28 16:50:30;;;;;;;;;;;20.60;49.40;;;;;;473304;251;1126;-48
2021/10/28 16:52:31;;;;;;;;;;;20.60;49.40;;;;;;473139;251;1364;-48
2021/10/28 16:54:33;;;;;;;;;;;20.60;49.40;;;;;;473257;251;1041;-48
2021/10/28 16:56:34;;;;;;;;;;;20.60;49.40;;;;;;473260;247;2201;-48
2021/10/28 16:58:35;;;;;;;;;;;20.60;49.30;;;;;;473241;251;1265;-48
2021/10/28 17:00:36;;;;;;;;;;;20.60;49.30;;;;;;473606;251;1401;-47
2021/10/28 17:02:38;;;;;;;;;;;20.60;49.30;;;;;;473507;251;1140;-48
2021/10/28 17:04:39;;;;;;;;;;;20.60;49.30;;;;;;473404;251;1075;-48
2021/10/28 17:06:40;;;;;;;;;;;20.60;49.20;;;;;;473287;251;1129;-48
2021/10/28 17:08:42;;;;;;;;;;;20.60;49.30;;;;;;473720;251;1060;-48
2021/10/28 17:10:43;;;;;;;;;;;20.60;49.20;;;;;;473258;251;1455;-48
2021/10/28 17:12:44;;;;;;;;;;;20.60;49.30;;;;;;473220;251;1067;-48
2021/10/28 17:14:48;;;;;;;;;;;20.60;49.20;;;;;;473729;251;1057;-48
2021/10/28 17:16:48;;;;;;;;;;;20.60;49.20;;;;;;473242;251;2197;-48
2021/10/28 17:18:48;;;;;;;;;;;20.60;49.30;;;;;;473757;251;1020;-48
2021/10/28 17:20:50;;;;;;;;;;;20.60;49.30;;;;;;473656;251;1217;-48
2021/10/28 17:22:53;;;;;;;;;;;20.50;49.30;;;;;;473393;251;1157;-48
2021/10/28 17:24:52;;;;;;;;;;;20.50;49.30;;;;;;473218;252;2226;-48
2021/10/28 17:26:54;;;;;;;;;;;20.60;49.30;;;;;;473341;251;1340;-48
2021/10/28 17:28:59;;;;;;;;;;;20.60;49.30;;;;;;473342;251;1559;-48
2021/10/28 17:30:57;;;;;;;;;;;20.50;49.30;;;;;;473178;252;2086;-48
2021/10/28 17:32:58;;;;;;;;;;;20.60;49.40;;;;;;473314;251;1150;-48
2021/10/28 17:35:00;;;;;;;;;;;20.60;49.40;;;;;;473458;251;1037;-48
2021/10/28 17:37:01;;;;;;;;;;;20.50;49.40;;;;;;473580;251;2145;-47
2021/10/28 17:39:02;;;;;;;;;;;20.50;49.30;;;;;;473442;251;1509;-47
2021/10/28 17:41:04;;;;;;;;;;;20.60;49.30;;;;;;473814;251;1101;-47
2021/10/28 17:43:10;;;;;;;;;;;20.60;49.20;;;;;;473776;251;1178;-47
2021/10/28 17:45:08;;;;;;;;;;;20.50;49.30;;;;;;473516;251;2191;-48
2021/10/28 17:47:08;;;;;;;;;;;20.50;49.30;;;;;;473442;251;2428;-48
2021/10/28 17:49:10;;;;;;;;;;;20.50;49.30;;;;;;473725;251;1118;-47
2021/10/28 17:51:11;;;;;;;;;;;20.60;49.40;;;;;;473348;251;1460;-48
2021/10/28 17:53:12;;;;;;;;;;;20.50;49.40;;;;;;473304;251;1218;-48
2021/10/28 17:55:14;;;;;;;;;;;20.50;49.40;;;;;;473336;251;1220;-48
2021/10/28 17:57:15;;;;;;;;;;;20.60;49.30;;;;;;473389;251;2200;-48
2021/10/28 17:59:18;;;;;;;;;;;20.60;49.30;;;;;;473431;251;1279;-48
2021/10/28 18:01:21;;;;;;;;;;;20.60;49.30;;;;;;473672;251;2289;-48
2021/10/28 18:03:23;;;;;;;;;;;20.50;49.20;;;;;;473468;251;2234;-48
2021/10/28 18:05:22;;;;;;;;;;;20.50;49.30;;;;;;473257;251;2783;-48
2021/10/28 18:07:23;;;;;;;;;;;20.50;49.30;;;;;;473738;251;1163;-48
2021/10/28 18:09:26;;;;;;;;;;;20.60;49.30;;;;;;473665;251;1074;-48
2021/10/28 18:11:26;;;;;;;;;;;20.50;49.40;;;;;;473303;252;2173;-48
2021/10/28 18:13:27;;;;;;;;;;;20.60;49.30;;;;;;473852;251;1200;-48
2021/10/28 18:15:29;;;;;;;;;;;20.50;49.30;;;;;;473738;251;1226;-48
2021/10/28 18:17:31;;;;;;;;;;;20.60;49.30;;;;;;473369;251;2118;-48
2021/10/28 18:19:31;;;;;;;;;;;20.50;49.30;;;;;;473763;251;1321;-48
2021/10/28 18:21:34;;;;;;;;;;;20.50;49.30;;;;;;473703;251;1367;-47
2021/10/28 18:23:34;;;;;;;;;;;20.60;49.30;;;;;;473458;251;1611;-47
2021/10/28 18:25:36;;;;;;;;;;;20.50;49.30;;;;;;473346;251;1253;-47
2021/10/28 18:27:39;;;;;;;;;;;20.60;49.40;;;;;;473798;251;1075;-48
2021/10/28 18:29:38;;;;;;;;;;;20.60;49.30;;;;;;473565;251;1452;-48
2021/10/28 18:31:41;;;;;;;;;;;20.60;49.30;;;;;;473410;251;1223;-48
2021/10/28 18:33:42;;;;;;;;;;;20.60;49.30;;;;;;473496;251;1586;-48
2021/10/28 18:35:42;;;;;;;;;;;20.60;49.30;;;;;;473738;252;2093;-48
2021/10/28 18:37:44;;;;;;;;;;;20.60;49.30;;;;;;473873;251;2122;-48
2021/10/28 18:39:45;;;;;;;;;;;20.50;49.30;;;;;;473885;251;1043;-47
2021/10/28 18:41:47;;;;;;;;;;;20.50;49.30;;;;;;473462;251;1182;-48
2021/10/28 18:43:48;;;;;;;;;;;20.50;49.30;;;;;;473908;251;1031;-48
2021/10/28 18:45:50;;;;;;;;;;;20.50;49.30;;;;;;473807;251;1087;-48
2021/10/28 18:47:52;;;;;;;;;;;20.50;49.30;;;;;;473556;251;1328;-48
2021/10/28 18:49:53;;;;;;;;;;;20.60;49.30;;;;;;473429;251;1186;-48
2021/10/28 18:51:54;;;;;;;;;;;20.50;49.30;;;;;;473625;251;1324;-48
2021/10/28 18:53:56;;;;;;;;;;;20.60;49.30;;;;;;473506;251;1050;-48
2021/10/28 18:55:57;;;;;;;;;;;20.50;49.30;;;;;;473878;251;2194;-48
2021/10/28 18:57:58;;;;;;;;;;;20.50;49.30;;;;;;473626;251;1192;-48
2021/10/28 19:00:00;;;;;;;;;;;20.50;49.20;;;;;;473446;251;1099;-48